Time;durP1;ratioP1;P1;durP2;ratioP2;P2;SDS_P1;SDS_P2;PMS_P1;PMS_P2;Temp;Humidity;BMP_temperature;BMP_pressure;BME280_temperature;BME280_humidity;BME280_pressure;Samples;Min_cycle;Max_cycle;Signal;HPM_P1;HPM_P2
2023/11/26 00:00:35;;;;;;;0.2;0.2;;;;;;;;;;;;;
2023/11/26 00:03:00;;;;;;;0.2;0.2;;;;;;;;;;;;;
2023/11/26 00:05:25;;;;;;;0.2;0.2;;;;;;;;;;;;;
2023/11/26 00:07:51;;;;;;;1;0.3;;;;;;;;;;;;;
2023/11/26 00:10:17;;;;;;;0.3;0.3;;;;;;;;;;;;;
2023/11/26 00:12:41;;;;;;;0.8;0.3;;;;;;;;;;;;;
2023/11/26 00:15:12;;;;;;;1.1;0.3;;;;;;;;;;;;;
2023/11/26 00:17:39;;;;;;;0.2;0.2;;;;;;;;;;;;;
2023/11/26 00:20:06;;;;;;;0.3;0.3;;;;;;;;;;;;;
2023/11/26 00:22:34;;;;;;;0.3;0.3;;;;;;;;;;;;;
2023/11/26 00:25:09;;;;;;;0.4;0.3;;;;;;;;;;;;;
2023/11/26 00:27:34;;;;;;;0.3;0.3;;;;;;;;;;;;;
2023/11/26 00:30:08;;;;;;;0.2;0.2;;;;;;;;;;;;;
2023/11/26 00:32:33;;;;;;;0.2;0.2;;;;;;;;;;;;;
2023/11/26 00:35:00;;;;;;;0.1;0.1;;;;;;;;;;;;;
2023/11/26 00:37:28;;;;;;;0.2;0.2;;;;;;;;;;;;;
2023/11/26 00:40:00;;;;;;;0.2;0.2;;;;;;;;;;;;;
2023/11/26 00:42:25;;;;;;;0.3;0.3;;;;;;;;;;;;;
2023/11/26 00:44:50;;;;;;;0.6;0.3;;;;;;;;;;;;;
2023/11/26 00:47:15;;;;;;;0.3;0.3;;;;;;;;;;;;;
2023/11/26 00:49:42;;;;;;;0.3;0.3;;;;;;;;;;;;;
2023/11/26 00:52:07;;;;;;;0.2;0.2;;;;;;;;;;;;;
2023/11/26 00:54:33;;;;;;;0.4;0.2;;;;;;;;;;;;;
2023/11/26 00:56:58;;;;;;;0.2;0.2;;;;;;;;;;;;;
2023/11/26 00:59:24;;;;;;;0.1;0.1;;;;;;;;;;;;;
2023/11/26 01:01:49;;;;;;;0.1;0.1;;;;;;;;;;;;;
2023/11/26 01:04:15;;;;;;;0.2;0.2;;;;;;;;;;;;;
2023/11/26 01:06:40;;;;;;;0.4;0.2;;;;;;;;;;;;;
2023/11/26 01:09:07;;;;;;;0.2;0.2;;;;;;;;;;;;;
2023/11/26 01:11:31;;;;;;;4.6;3.1;;;;;;;;;;;;;
2023/11/26 01:13:57;;;;;;;0.4;0.4;;;;;;;;;;;;;
2023/11/26 01:16:22;;;;;;;1;0.6;;;;;;;;;;;;;
2023/11/26 01:18:49;;;;;;;1;0.9;;;;;;;;;;;;;
2023/11/26 01:21:15;;;;;;;1.1;0.5;;;;;;;;;;;;;
2023/11/26 01:23:41;;;;;;;0.2;0.2;;;;;;;;;;;;;
2023/11/26 01:26:05;;;;;;;0.2;0.2;;;;;;;;;;;;;
2023/11/26 01:28:31;;;;;;;0.2;0.2;;;;;;;;;;;;;
2023/11/26 01:30:56;;;;;;;2.3;2.2;;;;;;;;;;;;;
2023/11/26 01:33:23;;;;;;;0.5;0.5;;;;;;;;;;;;;
2023/11/26 01:35:48;;;;;;;1.1;0.4;;;;;;;;;;;;;
2023/11/26 01:38:15;;;;;;;0.4;0.4;;;;;;;;;;;;;
2023/11/26 01:40:40;;;;;;;0.4;0.4;;;;;;;;;;;;;
2023/11/26 01:43:06;;;;;;;0.5;0.5;;;;;;;;;;;;;
2023/11/26 01:45:31;;;;;;;0.6;0.4;;;;;;;;;;;;;
2023/11/26 01:47:56;;;;;;;0.2;0.2;;;;;;;;;;;;;
2023/11/26 01:50:21;;;;;;;0.2;0.2;;;;;;;;;;;;;
2023/11/26 01:52:47;;;;;;;2.6;2.5;;;;;;;;;;;;;
2023/11/26 01:55:13;;;;;;;0.8;0.8;;;;;;;;;;;;;
2023/11/26 01:57:39;;;;;;;0.3;0.3;;;;;;;;;;;;;
2023/11/26 02:00:06;;;;;;;0.2;0.2;;;;;;;;;;;;;
2023/11/26 02:02:33;;;;;;;0.2;0.2;;;;;;;;;;;;;
2023/11/26 02:04:58;;;;;;;0.1;0.1;;;;;;;;;;;;;
2023/11/26 02:07:25;;;;;;;0.3;0.3;;;;;;;;;;;;;
2023/11/26 02:09:50;;;;;;;0.1;0.1;;;;;;;;;;;;;
2023/11/26 02:12:15;;;;;;;0.1;0.1;;;;;;;;;;;;;
2023/11/26 02:14:40;;;;;;;0.1;0.1;;;;;;;;;;;;;
2023/11/26 02:17:07;;;;;;;0.1;0.1;;;;;;;;;;;;;
2023/11/26 02:19:32;;;;;;;0.1;0.1;;;;;;;;;;;;;
2023/11/26 02:21:58;;;;;;;0.4;0.3;;;;;;;;;;;;;
2023/11/26 02:24:23;;;;;;;0.7;0.2;;;;;;;;;;;;;
2023/11/26 02:26:48;;;;;;;0.3;0.3;;;;;;;;;;;;;
2023/11/26 02:29:13;;;;;;;0.1;0.1;;;;;;;;;;;;;
2023/11/26 02:31:38;;;;;;;0.2;0.2;;;;;;;;;;;;;
2023/11/26 02:34:05;;;;;;;0.1;0.1;;;;;;;;;;;;;
2023/11/26 02:36:30;;;;;;;0.3;0.3;;;;;;;;;;;;;
2023/11/26 02:38:57;;;;;;;0.3;0.2;;;;;;;;;;;;;
2023/11/26 02:41:22;;;;;;;0.2;0.2;;;;;;;;;;;;;
2023/11/26 02:43:48;;;;;;;0.5;0.3;;;;;;;;;;;;;
2023/11/26 02:46:13;;;;;;;0.6;0.2;;;;;;;;;;;;;
2023/11/26 02:48:40;;;;;;;0.3;0.2;;;;;;;;;;;;;
2023/11/26 02:51:05;;;;;;;0.1;0.1;;;;;;;;;;;;;
2023/11/26 02:53:30;;;;;;;0.2;0.2;;;;;;;;;;;;;
2023/11/26 02:55:56;;;;;;;0.5;0.2;;;;;;;;;;;;;
2023/11/26 02:58:24;;;;;;;0.2;0.2;;;;;;;;;;;;;
2023/11/26 03:00:49;;;;;;;0.2;0.2;;;;;;;;;;;;;
2023/11/26 03:03:19;;;;;;;0.1;0.1;;;;;;;;;;;;;
2023/11/26 03:05:43;;;;;;;0.2;0.2;;;;;;;;;;;;;
2023/11/26 03:08:21;;;;;;;0.2;0.2;;;;;;;;;;;;;
2023/11/26 03:13:12;;;;;;;0.4;0.4;;;;;;;;;;;;;
2023/11/26 03:15:29;;;;;;;0.4;0.4;;;;;;;;;;;;;
2023/11/26 03:17:53;;;;;;;0.5;0.5;;;;;;;;;;;;;
2023/11/26 03:20:21;;;;;;;0.9;0.6;;;;;;;;;;;;;
2023/11/26 03:22:46;;;;;;;0.7;0.7;;;;;;;;;;;;;
2023/11/26 03:25:15;;;;;;;0.8;0.7;;;;;;;;;;;;;
2023/11/26 03:27:45;;;;;;;0.7;0.7;;;;;;;;;;;;;
2023/11/26 03:30:20;;;;;;;1.4;0.9;;;;;;;;;;;;;
2023/11/26 03:32:47;;;;;;;1.1;1;;;;;;;;;;;;;
2023/11/26 03:35:12;;;;;;;1;0.9;;;;;;;;;;;;;
2023/11/26 03:37:41;;;;;;;1.8;1;;;;;;;;;;;;;
2023/11/26 03:40:16;;;;;;;1;0.9;;;;;;;;;;;;;
2023/11/26 03:42:44;;;;;;;1.6;1.1;;;;;;;;;;;;;
2023/11/26 03:45:11;;;;;;;0.9;0.9;;;;;;;;;;;;;
2023/11/26 03:47:34;;;;;;;1.1;1;;;;;;;;;;;;;
2023/11/26 03:50:04;;;;;;;1.3;1.1;;;;;;;;;;;;;
2023/11/26 03:52:26;;;;;;;1.3;1.2;;;;;;;;;;;;;
2023/11/26 03:54:53;;;;;;;1.3;1;;;;;;;;;;;;;
2023/11/26 03:57:20;;;;;;;1.4;1;;;;;;;;;;;;;
2023/11/26 03:59:44;;;;;;;1.7;1;;;;;;;;;;;;;
2023/11/26 04:02:36;;;;;;;1;0.9;;;;;;;;;;;;;
2023/11/26 04:05:01;;;;;;;1.7;0.8;;;;;;;;;;;;;
2023/11/26 04:07:29;;;;;;;1.3;1.1;;;;;;;;;;;;;
2023/11/26 04:09:54;;;;;;;1;0.9;;;;;;;;;;;;;
2023/11/26 04:12:23;;;;;;;2;0.9;;;;;;;;;;;;;
2023/11/26 04:14:48;;;;;;;1.4;0.7;;;;;;;;;;;;;
2023/11/26 04:17:13;;;;;;;1.1;0.9;;;;;;;;;;;;;
2023/11/26 04:19:38;;;;;;;0.7;0.7;;;;;;;;;;;;;
2023/11/26 04:22:06;;;;;;;1.2;0.9;;;;;;;;;;;;;
2023/11/26 04:24:31;;;;;;;1.2;0.8;;;;;;;;;;;;;
2023/11/26 04:26:57;;;;;;;0.6;0.6;;;;;;;;;;;;;
2023/11/26 04:29:22;;;;;;;2.6;0.9;;;;;;;;;;;;;
2023/11/26 04:31:47;;;;;;;1.8;0.8;;;;;;;;;;;;;
2023/11/26 04:34:12;;;;;;;0.7;0.5;;;;;;;;;;;;;
2023/11/26 04:36:40;;;;;;;0.9;0.6;;;;;;;;;;;;;
2023/11/26 04:39:08;;;;;;;1.1;0.5;;;;;;;;;;;;;
2023/11/26 04:41:30;;;;;;;0.6;0.6;;;;;;;;;;;;;
2023/11/26 04:43:58;;;;;;;0.9;0.5;;;;;;;;;;;;;
2023/11/26 04:46:23;;;;;;;0.5;0.5;;;;;;;;;;;;;
2023/11/26 04:48:52;;;;;;;1.1;1;;;;;;;;;;;;;
2023/11/26 04:51:16;;;;;;;4.2;2.2;;;;;;;;;;;;;
2023/11/26 04:53:42;;;;;;;3.7;1.5;;;;;;;;;;;;;
2023/11/26 04:56:07;;;;;;;2.4;1.5;;;;;;;;;;;;;
2023/11/26 04:58:32;;;;;;;1.9;1.3;;;;;;;;;;;;;
2023/11/26 05:00:57;;;;;;;1.7;1.1;;;;;;;;;;;;;
2023/11/26 05:03:24;;;;;;;1;0.9;;;;;;;;;;;;;
2023/11/26 05:05:48;;;;;;;5.9;2.8;;;;;;;;;;;;;
2023/11/26 05:08:16;;;;;;;3.5;2.1;;;;;;;;;;;;;
2023/11/26 05:10:41;;;;;;;1.5;1.2;;;;;;;;;;;;;
2023/11/26 05:13:07;;;;;;;1.3;1.1;;;;;;;;;;;;;
2023/11/26 05:15:32;;;;;;;1;0.9;;;;;;;;;;;;;
2023/11/26 05:17:57;;;;;;;1.1;0.4;;;;;;;;;;;;;
2023/11/26 05:20:22;;;;;;;1;0.9;;;;;;;;;;;;;
2023/11/26 05:22:49;;;;;;;2;1.1;;;;;;;;;;;;;
2023/11/26 05:25:16;;;;;;;1.1;0.8;;;;;;;;;;;;;
2023/11/26 05:27:41;;;;;;;2.7;1.5;;;;;;;;;;;;;
2023/11/26 05:30:06;;;;;;;3;1.4;;;;;;;;;;;;;
2023/11/26 05:32:32;;;;;;;2.9;1.2;;;;;;;;;;;;;
2023/11/26 05:34:57;;;;;;;2.1;1;;;;;;;;;;;;;
2023/11/26 05:37:23;;;;;;;3.3;1.4;;;;;;;;;;;;;
2023/11/26 05:39:48;;;;;;;1.4;0.9;;;;;;;;;;;;;
2023/11/26 05:42:16;;;;;;;0.9;0.9;;;;;;;;;;;;;
2023/11/26 05:44:41;;;;;;;6.8;1;;;;;;;;;;;;;
2023/11/26 05:47:09;;;;;;;1.2;1.1;;;;;;;;;;;;;
2023/11/26 05:49:39;;;;;;;2.3;0.9;;;;;;;;;;;;;
2023/11/26 05:52:04;;;;;;;0.9;0.8;;;;;;;;;;;;;
2023/11/26 05:54:30;;;;;;;1;0.9;;;;;;;;;;;;;
2023/11/26 05:56:56;;;;;;;2.2;1.4;;;;;;;;;;;;;
2023/11/26 05:59:21;;;;;;;3.5;1;;;;;;;;;;;;;
2023/11/26 06:01:46;;;;;;;1.6;1.1;;;;;;;;;;;;;
2023/11/26 06:04:14;;;;;;;1.5;0.9;;;;;;;;;;;;;
2023/11/26 06:06:39;;;;;;;1.1;0.8;;;;;;;;;;;;;
2023/11/26 06:09:05;;;;;;;1;0.8;;;;;;;;;;;;;
2023/11/26 06:11:29;;;;;;;0.8;0.8;;;;;;;;;;;;;
2023/11/26 06:13:56;;;;;;;0.8;0.8;;;;;;;;;;;;;
2023/11/26 06:16:21;;;;;;;0.8;0.8;;;;;;;;;;;;;
2023/11/26 06:18:47;;;;;;;1;0.9;;;;;;;;;;;;;
2023/11/26 06:21:12;;;;;;;2.7;1.1;;;;;;;;;;;;;
2023/11/26 06:23:37;;;;;;;0.8;0.8;;;;;;;;;;;;;
2023/11/26 06:26:02;;;;;;;1.6;1.3;;;;;;;;;;;;;
2023/11/26 06:28:30;;;;;;;2.4;2.2;;;;;;;;;;;;;
2023/11/26 06:30:55;;;;;;;3.8;2.1;;;;;;;;;;;;;
2023/11/26 06:33:20;;;;;;;1.4;1.1;;;;;;;;;;;;;
2023/11/26 06:35:45;;;;;;;1.2;1.1;;;;;;;;;;;;;
2023/11/26 06:38:10;;;;;;;5.5;1.6;;;;;;;;;;;;;
2023/11/26 06:40:36;;;;;;;1.8;1.4;;;;;;;;;;;;;
2023/11/26 06:43:01;;;;;;;3.9;2.1;;;;;;;;;;;;;
2023/11/26 06:45:30;;;;;;;4;2.5;;;;;;;;;;;;;
2023/11/26 06:47:55;;;;;;;2.7;1.6;;;;;;;;;;;;;
2023/11/26 06:50:23;;;;;;;4.5;2.1;;;;;;;;;;;;;
2023/11/26 06:52:48;;;;;;;4.3;2.3;;;;;;;;;;;;;
2023/11/26 06:55:14;;;;;;;3.1;1.6;;;;;;;;;;;;;
2023/11/26 06:57:38;;;;;;;3.4;1.4;;;;;;;;;;;;;
2023/11/26 07:00:03;;;;;;;4.8;2.6;;;;;;;;;;;;;
2023/11/26 07:02:28;;;;;;;2.6;1.7;;;;;;;;;;;;;
2023/11/26 07:04:54;;;;;;;3.6;1.4;;;;;;;;;;;;;
2023/11/26 07:07:19;;;;;;;1.2;1.1;;;;;;;;;;;;;
2023/11/26 07:09:47;;;;;;;1.3;1.1;;;;;;;;;;;;;
2023/11/26 07:12:12;;;;;;;16.2;8.4;;;;;;;;;;;;;
2023/11/26 07:14:38;;;;;;;13.1;6.6;;;;;;;;;;;;;
2023/11/26 07:17:03;;;;;;;6.9;3.6;;;;;;;;;;;;;
2023/11/26 07:19:29;;;;;;;3.3;2.2;;;;;;;;;;;;;
2023/11/26 07:21:55;;;;;;;2.2;1.9;;;;;;;;;;;;;
2023/11/26 07:24:20;;;;;;;2.9;2.1;;;;;;;;;;;;;
2023/11/26 07:26:45;;;;;;;4.4;2.6;;;;;;;;;;;;;
2023/11/26 07:29:11;;;;;;;3.5;2;;;;;;;;;;;;;
2023/11/26 07:31:37;;;;;;;2.4;1.4;;;;;;;;;;;;;
2023/11/26 07:34:03;;;;;;;2.5;2.3;;;;;;;;;;;;;
2023/11/26 07:36:28;;;;;;;5.3;4.5;;;;;;;;;;;;;
2023/11/26 07:38:55;;;;;;;4.8;2.6;;;;;;;;;;;;;
2023/11/26 07:41:20;;;;;;;2.7;2.1;;;;;;;;;;;;;
2023/11/26 07:43:45;;;;;;;2.9;2.2;;;;;;;;;;;;;
2023/11/26 07:46:10;;;;;;;4.2;3.4;;;;;;;;;;;;;
2023/11/26 07:48:37;;;;;;;4.3;3;;;;;;;;;;;;;
2023/11/26 07:51:03;;;;;;;4.3;2.8;;;;;;;;;;;;;
2023/11/26 07:53:28;;;;;;;5.4;2.9;;;;;;;;;;;;;
2023/11/26 07:55:56;;;;;;;6.2;2.9;;;;;;;;;;;;;
2023/11/26 07:58:22;;;;;;;3.6;2.5;;;;;;;;;;;;;
2023/11/26 08:00:43;;;;;;;8.5;2.6;;;;;;;;;;;;;
2023/11/26 08:03:11;;;;;;;4.7;2.4;;;;;;;;;;;;;
2023/11/26 08:05:36;;;;;;;3.9;2.9;;;;;;;;;;;;;
2023/11/26 08:08:04;;;;;;;15.4;8;;;;;;;;;;;;;
2023/11/26 08:10:31;;;;;;;24.3;12.5;;;;;;;;;;;;;
2023/11/26 08:12:55;;;;;;;10.5;6.3;;;;;;;;;;;;;
2023/11/26 08:15:21;;;;;;;6;4;;;;;;;;;;;;;
2023/11/26 08:17:53;;;;;;;6.7;5;;;;;;;;;;;;;
2023/11/26 08:20:15;;;;;;;13.3;8.5;;;;;;;;;;;;;
2023/11/26 08:22:42;;;;;;;7.9;4.5;;;;;;;;;;;;;
2023/11/26 08:25:07;;;;;;;5.1;3.2;;;;;;;;;;;;;
2023/11/26 08:27:35;;;;;;;4.9;3.4;;;;;;;;;;;;;
2023/11/26 08:30:01;;;;;;;6.2;3.9;;;;;;;;;;;;;
2023/11/26 08:32:25;;;;;;;6.5;3.3;;;;;;;;;;;;;
2023/11/26 08:34:55;;;;;;;7.4;4.2;;;;;;;;;;;;;
2023/11/26 08:37:18;;;;;;;7.5;4.3;;;;;;;;;;;;;
2023/11/26 08:39:45;;;;;;;6.4;3.8;;;;;;;;;;;;;
2023/11/26 08:42:10;;;;;;;4.8;3.3;;;;;;;;;;;;;
2023/11/26 08:44:38;;;;;;;4.6;3.3;;;;;;;;;;;;;
2023/11/26 08:47:02;;;;;;;5.9;3.6;;;;;;;;;;;;;
2023/11/26 08:49:28;;;;;;;7;3.8;;;;;;;;;;;;;
2023/11/26 08:51:54;;;;;;;5.7;4.1;;;;;;;;;;;;;
2023/11/26 08:54:21;;;;;;;8.4;4.1;;;;;;;;;;;;;
2023/11/26 08:56:45;;;;;;;5.7;4.4;;;;;;;;;;;;;
2023/11/26 08:59:11;;;;;;;4.9;3.6;;;;;;;;;;;;;
2023/11/26 09:01:37;;;;;;;4.3;3.3;;;;;;;;;;;;;
2023/11/26 09:04:03;;;;;;;3.2;2.7;;;;;;;;;;;;;
2023/11/26 09:06:28;;;;;;;4.8;2.9;;;;;;;;;;;;;
2023/11/26 09:08:54;;;;;;;5.9;4;;;;;;;;;;;;;
2023/11/26 09:11:19;;;;;;;5.1;3.2;;;;;;;;;;;;;
2023/11/26 09:13:47;;;;;;;4.4;3.4;;;;;;;;;;;;;
2023/11/26 09:16:13;;;;;;;4.7;3.7;;;;;;;;;;;;;
2023/11/26 09:18:39;;;;;;;5.4;4.2;;;;;;;;;;;;;
2023/11/26 09:21:05;;;;;;;6.6;4.2;;;;;;;;;;;;;
2023/11/26 09:23:33;;;;;;;6.4;4.4;;;;;;;;;;;;;
2023/11/26 09:25:58;;;;;;;7.1;4.8;;;;;;;;;;;;;
2023/11/26 09:28:23;;;;;;;5.8;4.5;;;;;;;;;;;;;
2023/11/26 09:30:49;;;;;;;8.4;4.5;;;;;;;;;;;;;
2023/11/26 09:33:14;;;;;;;4.8;3.2;;;;;;;;;;;;;
2023/11/26 09:35:39;;;;;;;4.6;2.8;;;;;;;;;;;;;
2023/11/26 09:38:06;;;;;;;5.1;2.6;;;;;;;;;;;;;
2023/11/26 09:40:31;;;;;;;3.8;1.9;;;;;;;;;;;;;
2023/11/26 09:42:59;;;;;;;3.6;2.7;;;;;;;;;;;;;
2023/11/26 09:45:24;;;;;;;4.3;2.1;;;;;;;;;;;;;
2023/11/26 09:47:49;;;;;;;2.3;1.4;;;;;;;;;;;;;
2023/11/26 09:50:14;;;;;;;2.5;1.5;;;;;;;;;;;;;
2023/11/26 09:52:41;;;;;;;2.3;1.7;;;;;;;;;;;;;
2023/11/26 09:55:06;;;;;;;2.2;1.6;;;;;;;;;;;;;
2023/11/26 09:57:33;;;;;;;4;2.8;;;;;;;;;;;;;
2023/11/26 09:59:57;;;;;;;3.7;3;;;;;;;;;;;;;
2023/11/26 10:02:23;;;;;;;4.3;2.9;;;;;;;;;;;;;
2023/11/26 10:04:48;;;;;;;4;2.3;;;;;;;;;;;;;
2023/11/26 10:07:14;;;;;;;2.5;2.3;;;;;;;;;;;;;
2023/11/26 10:09:40;;;;;;;3.5;2.4;;;;;;;;;;;;;
2023/11/26 10:12:05;;;;;;;2.2;1.9;;;;;;;;;;;;;
2023/11/26 10:14:32;;;;;;;2.4;2;;;;;;;;;;;;;
2023/11/26 10:16:57;;;;;;;4.4;2.4;;;;;;;;;;;;;
2023/11/26 10:19:25;;;;;;;1.9;1.5;;;;;;;;;;;;;
2023/11/26 10:21:50;;;;;;;2.2;1.3;;;;;;;;;;;;;
2023/11/26 10:24:16;;;;;;;1.6;1.1;;;;;;;;;;;;;
2023/11/26 10:26:41;;;;;;;1.5;0.9;;;;;;;;;;;;;
2023/11/26 10:29:08;;;;;;;1.2;1.1;;;;;;;;;;;;;
2023/11/26 10:31:32;;;;;;;2.5;1.7;;;;;;;;;;;;;
2023/11/26 10:33:57;;;;;;;1.5;1.4;;;;;;;;;;;;;
2023/11/26 10:36:22;;;;;;;2.1;1.7;;;;;;;;;;;;;
2023/11/26 10:38:51;;;;;;;3.2;2.1;;;;;;;;;;;;;
2023/11/26 10:41:16;;;;;;;2.8;1.8;;;;;;;;;;;;;
2023/11/26 10:43:42;;;;;;;2.1;1.9;;;;;;;;;;;;;
2023/11/26 10:46:08;;;;;;;3.4;2.1;;;;;;;;;;;;;
2023/11/26 10:48:33;;;;;;;3.1;1.8;;;;;;;;;;;;;
2023/11/26 10:50:58;;;;;;;2.1;1.5;;;;;;;;;;;;;
2023/11/26 10:53:24;;;;;;;2.3;1.5;;;;;;;;;;;;;
2023/11/26 10:55:49;;;;;;;1.5;1.4;;;;;;;;;;;;;
2023/11/26 10:58:17;;;;;;;1.8;1.5;;;;;;;;;;;;;
2023/11/26 11:00:43;;;;;;;4.6;2.4;;;;;;;;;;;;;
2023/11/26 11:03:12;;;;;;;2.9;2.4;;;;;;;;;;;;;
2023/11/26 11:05:43;;;;;;;2.6;1.9;;;;;;;;;;;;;
2023/11/26 11:08:11;;;;;;;2.9;1.8;;;;;;;;;;;;;
2023/11/26 11:10:36;;;;;;;2.4;2;;;;;;;;;;;;;
2023/11/26 11:13:01;;;;;;;3.4;2.4;;;;;;;;;;;;;
2023/11/26 11:15:27;;;;;;;2.3;2.1;;;;;;;;;;;;;
2023/11/26 11:17:54;;;;;;;4;1.9;;;;;;;;;;;;;
2023/11/26 11:20:19;;;;;;;4.5;2;;;;;;;;;;;;;
2023/11/26 11:22:46;;;;;;;2.8;2.1;;;;;;;;;;;;;
2023/11/26 11:25:10;;;;;;;4.2;2;;;;;;;;;;;;;
2023/11/26 11:27:37;;;;;;;39.8;23.9;;;;;;;;;;;;;
2023/11/26 11:30:03;;;;;;;36.8;18.1;;;;;;;;;;;;;
2023/11/26 11:32:28;;;;;;;48.8;24.1;;;;;;;;;;;;;
2023/11/26 11:34:54;;;;;;;9.1;5.5;;;;;;;;;;;;;
2023/11/26 11:37:19;;;;;;;4.7;2.3;;;;;;;;;;;;;
2023/11/26 11:39:46;;;;;;;4.1;2.5;;;;;;;;;;;;;
2023/11/26 11:42:14;;;;;;;5;3.5;;;;;;;;;;;;;
2023/11/26 11:44:40;;;;;;;11.6;3.3;;;;;;;;;;;;;
2023/11/26 11:47:04;;;;;;;9.8;4.4;;;;;;;;;;;;;
2023/11/26 11:49:32;;;;;;;4;3.1;;;;;;;;;;;;;
2023/11/26 11:51:55;;;;;;;6.8;4.9;;;;;;;;;;;;;
2023/11/26 11:54:21;;;;;;;6.4;3.9;;;;;;;;;;;;;
2023/11/26 11:56:47;;;;;;;5;3.2;;;;;;;;;;;;;
2023/11/26 11:59:11;;;;;;;4.7;2.9;;;;;;;;;;;;;
2023/11/26 12:01:36;;;;;;;3.7;3.2;;;;;;;;;;;;;
2023/11/26 12:04:02;;;;;;;2.9;1.7;;;;;;;;;;;;;
2023/11/26 12:06:27;;;;;;;2.4;1.7;;;;;;;;;;;;;
2023/11/26 12:08:52;;;;;;;1.5;1.4;;;;;;;;;;;;;
2023/11/26 12:11:17;;;;;;;2.3;1.7;;;;;;;;;;;;;
2023/11/26 12:13:43;;;;;;;3.1;2.1;;;;;;;;;;;;;
2023/11/26 12:16:09;;;;;;;2.2;1.8;;;;;;;;;;;;;
2023/11/26 12:18:34;;;;;;;3.4;1.9;;;;;;;;;;;;;
2023/11/26 12:21:03;;;;;;;6.7;3.9;;;;;;;;;;;;;
2023/11/26 12:23:27;;;;;;;68.3;29.7;;;;;;;;;;;;;
2023/11/26 12:25:55;;;;;;;1.9;1.6;;;;;;;;;;;;;
2023/11/26 12:28:18;;;;;;;4.3;3.1;;;;;;;;;;;;;
2023/11/26 12:30:43;;;;;;;79.2;33.1;;;;;;;;;;;;;
2023/11/26 12:33:12;;;;;;;21.9;10.7;;;;;;;;;;;;;
2023/11/26 12:35:36;;;;;;;4.7;3;;;;;;;;;;;;;
2023/11/26 12:38:01;;;;;;;41.7;23.7;;;;;;;;;;;;;
2023/11/26 12:40:26;;;;;;;20.2;12.6;;;;;;;;;;;;;
2023/11/26 12:42:52;;;;;;;26.4;13.9;;;;;;;;;;;;;
2023/11/26 12:45:17;;;;;;;39.3;21.9;;;;;;;;;;;;;
2023/11/26 12:47:44;;;;;;;162.1;68.6;;;;;;;;;;;;;
2023/11/26 12:50:09;;;;;;;188.5;86.1;;;;;;;;;;;;;
2023/11/26 12:52:37;;;;;;;64.7;34.4;;;;;;;;;;;;;
2023/11/26 12:55:02;;;;;;;36.5;24.8;;;;;;;;;;;;;
2023/11/26 12:57:27;;;;;;;42.4;38.3;;;;;;;;;;;;;
2023/11/26 12:59:54;;;;;;;9.2;8.3;;;;;;;;;;;;;
2023/11/26 13:02:23;;;;;;;5.8;3.8;;;;;;;;;;;;;
2023/11/26 13:04:47;;;;;;;6.1;4.1;;;;;;;;;;;;;
2023/11/26 13:07:16;;;;;;;6.3;4.5;;;;;;;;;;;;;
2023/11/26 13:09:46;;;;;;;18.1;10.2;;;;;;;;;;;;;
2023/11/26 13:12:08;;;;;;;3.1;2.2;;;;;;;;;;;;;
2023/11/26 13:14:32;;;;;;;7.6;4.3;;;;;;;;;;;;;
2023/11/26 13:16:57;;;;;;;2.3;1.4;;;;;;;;;;;;;
2023/11/26 13:19:25;;;;;;;3.5;3;;;;;;;;;;;;;
2023/11/26 13:21:50;;;;;;;2.7;1.9;;;;;;;;;;;;;
2023/11/26 13:24:19;;;;;;;5.6;4.9;;;;;;;;;;;;;
2023/11/26 13:26:44;;;;;;;4.8;2.9;;;;;;;;;;;;;
2023/11/26 13:29:09;;;;;;;4.8;4;;;;;;;;;;;;;
2023/11/26 13:31:34;;;;;;;9.4;6;;;;;;;;;;;;;
2023/11/26 13:34:02;;;;;;;6;4.6;;;;;;;;;;;;;
2023/11/26 13:36:26;;;;;;;6.2;3.9;;;;;;;;;;;;;
2023/11/26 13:38:53;;;;;;;4.7;3.9;;;;;;;;;;;;;
2023/11/26 13:41:18;;;;;;;5.4;4.1;;;;;;;;;;;;;
2023/11/26 13:43:44;;;;;;;4.6;3.2;;;;;;;;;;;;;
2023/11/26 13:46:09;;;;;;;7;5;;;;;;;;;;;;;
2023/11/26 13:48:36;;;;;;;4.5;3.2;;;;;;;;;;;;;
2023/11/26 13:51:00;;;;;;;3.2;2.6;;;;;;;;;;;;;
2023/11/26 13:53:26;;;;;;;3;2.5;;;;;;;;;;;;;
2023/11/26 13:55:54;;;;;;;4.6;3.3;;;;;;;;;;;;;
2023/11/26 13:58:20;;;;;;;3.9;3;;;;;;;;;;;;;
2023/11/26 14:00:45;;;;;;;4.2;3.2;;;;;;;;;;;;;
2023/11/26 14:03:12;;;;;;;5;3.5;;;;;;;;;;;;;
2023/11/26 14:05:37;;;;;;;4.7;3.2;;;;;;;;;;;;;
2023/11/26 14:08:02;;;;;;;4.5;3.5;;;;;;;;;;;;;
2023/11/26 14:10:30;;;;;;;3.7;3;;;;;;;;;;;;;
2023/11/26 14:12:55;;;;;;;3.8;3;;;;;;;;;;;;;
2023/11/26 14:15:18;;;;;;;8;5.3;;;;;;;;;;;;;
2023/11/26 14:17:44;;;;;;;25.2;17.1;;;;;;;;;;;;;
2023/11/26 14:20:09;;;;;;;15.4;11.3;;;;;;;;;;;;;
2023/11/26 14:22:36;;;;;;;31.3;22.4;;;;;;;;;;;;;
2023/11/26 14:25:02;;;;;;;30.5;22.5;;;;;;;;;;;;;
2023/11/26 14:27:30;;;;;;;19;14.1;;;;;;;;;;;;;
2023/11/26 14:29:59;;;;;;;13.3;9;;;;;;;;;;;;;
2023/11/26 14:32:23;;;;;;;8.1;6.4;;;;;;;;;;;;;
2023/11/26 14:34:50;;;;;;;7.5;5.4;;;;;;;;;;;;;
2023/11/26 14:37:14;;;;;;;6.7;4.6;;;;;;;;;;;;;
2023/11/26 14:39:41;;;;;;;5;3.3;;;;;;;;;;;;;
2023/11/26 14:42:07;;;;;;;5.9;3.6;;;;;;;;;;;;;
2023/11/26 14:44:33;;;;;;;6.7;4.3;;;;;;;;;;;;;
2023/11/26 14:46:58;;;;;;;5.6;4;;;;;;;;;;;;;
2023/11/26 14:49:24;;;;;;;5;3.9;;;;;;;;;;;;;
2023/11/26 14:51:49;;;;;;;5.4;4;;;;;;;;;;;;;
2023/11/26 14:54:14;;;;;;;13;8;;;;;;;;;;;;;
2023/11/26 14:56:39;;;;;;;16.2;8.1;;;;;;;;;;;;;
2023/11/26 14:59:05;;;;;;;16.7;8.4;;;;;;;;;;;;;
2023/11/26 15:01:31;;;;;;;8.6;5.4;;;;;;;;;;;;;
2023/11/26 15:03:57;;;;;;;12.2;6.6;;;;;;;;;;;;;
2023/11/26 15:06:22;;;;;;;19.8;10.6;;;;;;;;;;;;;
2023/11/26 15:08:48;;;;;;;12.7;7.1;;;;;;;;;;;;;
2023/11/26 15:11:13;;;;;;;12.5;6.9;;;;;;;;;;;;;
2023/11/26 15:13:40;;;;;;;11.1;6.1;;;;;;;;;;;;;
2023/11/26 15:16:05;;;;;;;9.2;5.1;;;;;;;;;;;;;
2023/11/26 15:18:30;;;;;;;7.8;4.6;;;;;;;;;;;;;
2023/11/26 15:20:56;;;;;;;7.1;4.6;;;;;;;;;;;;;
2023/11/26 15:23:21;;;;;;;24.7;13.1;;;;;;;;;;;;;
2023/11/26 15:25:46;;;;;;;26.8;13.4;;;;;;;;;;;;;
2023/11/26 15:28:13;;;;;;;8.5;5.5;;;;;;;;;;;;;
2023/11/26 15:30:38;;;;;;;14.3;7.7;;;;;;;;;;;;;
2023/11/26 15:33:05;;;;;;;11.1;6.5;;;;;;;;;;;;;
2023/11/26 15:35:29;;;;;;;14.5;8;;;;;;;;;;;;;
2023/11/26 15:37:59;;;;;;;10.4;7;;;;;;;;;;;;;
2023/11/26 15:40:22;;;;;;;18.7;11.8;;;;;;;;;;;;;
2023/11/26 15:42:51;;;;;;;17.8;11;;;;;;;;;;;;;
2023/11/26 15:45:16;;;;;;;25.3;16.1;;;;;;;;;;;;;
2023/11/26 15:47:44;;;;;;;15.1;10.6;;;;;;;;;;;;;
2023/11/26 15:50:10;;;;;;;18.7;11.7;;;;;;;;;;;;;
2023/11/26 15:52:38;;;;;;;12.8;8.7;;;;;;;;;;;;;
2023/11/26 15:55:03;;;;;;;14.3;8.7;;;;;;;;;;;;;
2023/11/26 15:57:31;;;;;;;12.9;9.1;;;;;;;;;;;;;
2023/11/26 15:59:56;;;;;;;15.3;9.9;;;;;;;;;;;;;
2023/11/26 16:02:25;;;;;;;14.1;10.3;;;;;;;;;;;;;
2023/11/26 16:04:48;;;;;;;17.3;9.8;;;;;;;;;;;;;
2023/11/26 16:07:14;;;;;;;21.8;12.4;;;;;;;;;;;;;
2023/11/26 16:09:39;;;;;;;37;19.3;;;;;;;;;;;;;
2023/11/26 16:12:07;;;;;;;55.7;28.2;;;;;;;;;;;;;
2023/11/26 16:14:29;;;;;;;68.1;37.6;;;;;;;;;;;;;
2023/11/26 16:16:56;;;;;;;38.4;23.1;;;;;;;;;;;;;
2023/11/26 16:19:21;;;;;;;19.6;12.5;;;;;;;;;;;;;
2023/11/26 16:21:48;;;;;;;14.9;10;;;;;;;;;;;;;
2023/11/26 16:24:15;;;;;;;9.5;7.3;;;;;;;;;;;;;
2023/11/26 16:26:41;;;;;;;18.7;10.6;;;;;;;;;;;;;
2023/11/26 16:29:05;;;;;;;10.7;7.5;;;;;;;;;;;;;
2023/11/26 16:31:31;;;;;;;9.5;6.3;;;;;;;;;;;;;
2023/11/26 16:33:56;;;;;;;18;9.2;;;;;;;;;;;;;
2023/11/26 16:36:21;;;;;;;17.8;11.6;;;;;;;;;;;;;
2023/11/26 16:38:46;;;;;;;29.5;15;;;;;;;;;;;;;
2023/11/26 16:41:13;;;;;;;20.8;11.2;;;;;;;;;;;;;
2023/11/26 16:43:41;;;;;;;28.8;17.1;;;;;;;;;;;;;
2023/11/26 16:46:08;;;;;;;9.6;6.5;;;;;;;;;;;;;
2023/11/26 16:48:31;;;;;;;11.8;7.4;;;;;;;;;;;;;
2023/11/26 16:50:59;;;;;;;28.4;16.1;;;;;;;;;;;;;
2023/11/26 16:53:24;;;;;;;32.2;17.9;;;;;;;;;;;;;
2023/11/26 16:55:49;;;;;;;35.9;19.4;;;;;;;;;;;;;
2023/11/26 16:58:14;;;;;;;33.8;18.6;;;;;;;;;;;;;
2023/11/26 17:00:41;;;;;;;27.5;15.6;;;;;;;;;;;;;
2023/11/26 17:03:06;;;;;;;16.2;9.9;;;;;;;;;;;;;
2023/11/26 17:05:33;;;;;;;13.8;6.6;;;;;;;;;;;;;
2023/11/26 17:07:58;;;;;;;9.7;6.6;;;;;;;;;;;;;
2023/11/26 17:10:26;;;;;;;11.1;7.3;;;;;;;;;;;;;
2023/11/26 17:12:49;;;;;;;13.6;8.2;;;;;;;;;;;;;
2023/11/26 17:15:20;;;;;;;11.1;8.5;;;;;;;;;;;;;
2023/11/26 17:17:49;;;;;;;13.9;8.8;;;;;;;;;;;;;
2023/11/26 17:20:22;;;;;;;11.9;8.9;;;;;;;;;;;;;
2023/11/26 17:22:50;;;;;;;7;5.6;;;;;;;;;;;;;
2023/11/26 17:25:17;;;;;;;8.8;5.8;;;;;;;;;;;;;
2023/11/26 17:27:46;;;;;;;9.2;5.4;;;;;;;;;;;;;
2023/11/26 17:30:11;;;;;;;8;5.7;;;;;;;;;;;;;
2023/11/26 17:32:39;;;;;;;10;7.3;;;;;;;;;;;;;
2023/11/26 17:35:08;;;;;;;8.1;5.4;;;;;;;;;;;;;
2023/11/26 17:37:33;;;;;;;8;5.4;;;;;;;;;;;;;
2023/11/26 17:40:00;;;;;;;6.9;5.1;;;;;;;;;;;;;
2023/11/26 17:42:25;;;;;;;12.8;8.1;;;;;;;;;;;;;
2023/11/26 17:44:53;;;;;;;24.5;12.7;;;;;;;;;;;;;
2023/11/26 17:47:18;;;;;;;12.4;7.8;;;;;;;;;;;;;
2023/11/26 17:49:45;;;;;;;9.5;6;;;;;;;;;;;;;
2023/11/26 17:52:09;;;;;;;19.5;11.3;;;;;;;;;;;;;
2023/11/26 17:54:39;;;;;;;34.6;18.3;;;;;;;;;;;;;
2023/11/26 17:57:03;;;;;;;28.8;18.6;;;;;;;;;;;;;
2023/11/26 17:59:29;;;;;;;218;104.9;;;;;;;;;;;;;
2023/11/26 18:01:55;;;;;;;118.5;59.6;;;;;;;;;;;;;
2023/11/26 18:04:21;;;;;;;135.3;68.5;;;;;;;;;;;;;
2023/11/26 18:06:46;;;;;;;20.5;12.8;;;;;;;;;;;;;
2023/11/26 18:09:12;;;;;;;19.8;13.1;;;;;;;;;;;;;
2023/11/26 18:11:37;;;;;;;24.8;15.6;;;;;;;;;;;;;
2023/11/26 18:14:05;;;;;;;34.8;22.1;;;;;;;;;;;;;
2023/11/26 18:16:28;;;;;;;32.4;19.5;;;;;;;;;;;;;
2023/11/26 18:18:55;;;;;;;25.7;16.5;;;;;;;;;;;;;
2023/11/26 18:21:20;;;;;;;30.7;18.3;;;;;;;;;;;;;
2023/11/26 18:23:47;;;;;;;22.9;14.2;;;;;;;;;;;;;
2023/11/26 18:26:12;;;;;;;23.7;13.7;;;;;;;;;;;;;
2023/11/26 18:28:37;;;;;;;19;11.8;;;;;;;;;;;;;
2023/11/26 18:31:02;;;;;;;21.3;13.2;;;;;;;;;;;;;
2023/11/26 18:33:28;;;;;;;12.8;9.7;;;;;;;;;;;;;
2023/11/26 18:35:53;;;;;;;12.1;8.6;;;;;;;;;;;;;
2023/11/26 18:38:19;;;;;;;9.8;7.3;;;;;;;;;;;;;
2023/11/26 18:40:44;;;;;;;10;7.6;;;;;;;;;;;;;
2023/11/26 18:43:12;;;;;;;7.6;6.2;;;;;;;;;;;;;
2023/11/26 18:45:37;;;;;;;10.7;7.8;;;;;;;;;;;;;
2023/11/26 18:48:03;;;;;;;9.7;7.2;;;;;;;;;;;;;
2023/11/26 18:50:28;;;;;;;10.6;6.6;;;;;;;;;;;;;
2023/11/26 18:52:54;;;;;;;8;6;;;;;;;;;;;;;
2023/11/26 18:55:20;;;;;;;6.9;5.2;;;;;;;;;;;;;
2023/11/26 18:57:45;;;;;;;6;3.7;;;;;;;;;;;;;
2023/11/26 19:00:11;;;;;;;4.3;3.2;;;;;;;;;;;;;
2023/11/26 19:02:39;;;;;;;30.4;17.4;;;;;;;;;;;;;
2023/11/26 19:05:03;;;;;;;13.1;7.8;;;;;;;;;;;;;
2023/11/26 19:07:31;;;;;;;41.3;22;;;;;;;;;;;;;
2023/11/26 19:09:59;;;;;;;15.8;9.9;;;;;;;;;;;;;
2023/11/26 19:12:24;;;;;;;14.2;7.8;;;;;;;;;;;;;
2023/11/26 19:14:50;;;;;;;12.6;7.5;;;;;;;;;;;;;
2023/11/26 19:17:15;;;;;;;15.4;8.2;;;;;;;;;;;;;
2023/11/26 19:19:43;;;;;;;11;6.6;;;;;;;;;;;;;
2023/11/26 19:22:07;;;;;;;25.5;14;;;;;;;;;;;;;
2023/11/26 19:24:35;;;;;;;15.1;8.8;;;;;;;;;;;;;
2023/11/26 19:26:59;;;;;;;10.2;6.5;;;;;;;;;;;;;
2023/11/26 19:29:25;;;;;;;8.6;5.5;;;;;;;;;;;;;
2023/11/26 19:31:50;;;;;;;6.2;4.3;;;;;;;;;;;;;
2023/11/26 19:34:16;;;;;;;5.5;4.1;;;;;;;;;;;;;
2023/11/26 19:36:40;;;;;;;23.7;11.9;;;;;;;;;;;;;
2023/11/26 19:39:10;;;;;;;17.2;9.8;;;;;;;;;;;;;
2023/11/26 19:41:35;;;;;;;8.7;5.7;;;;;;;;;;;;;
2023/11/26 19:44:01;;;;;;;6;4.3;;;;;;;;;;;;;
2023/11/26 19:46:27;;;;;;;5.5;3.5;;;;;;;;;;;;;
2023/11/26 19:48:53;;;;;;;11.6;6.7;;;;;;;;;;;;;
2023/11/26 19:51:19;;;;;;;2.8;2.3;;;;;;;;;;;;;
2023/11/26 19:53:49;;;;;;;8.5;5.6;;;;;;;;;;;;;
2023/11/26 19:56:17;;;;;;;7.5;5.6;;;;;;;;;;;;;
2023/11/26 19:58:41;;;;;;;5.9;4.4;;;;;;;;;;;;;
2023/11/26 20:01:08;;;;;;;7.6;5.3;;;;;;;;;;;;;
2023/11/26 20:03:32;;;;;;;163.1;72.7;;;;;;;;;;;;;
2023/11/26 20:05:59;;;;;;;8;4.8;;;;;;;;;;;;;
2023/11/26 20:08:24;;;;;;;67.4;33.6;;;;;;;;;;;;;
2023/11/26 20:10:49;;;;;;;32.3;17.8;;;;;;;;;;;;;
2023/11/26 20:13:15;;;;;;;15.5;9.2;;;;;;;;;;;;;
2023/11/26 20:15:41;;;;;;;10.2;7;;;;;;;;;;;;;
2023/11/26 20:18:07;;;;;;;15.5;9.7;;;;;;;;;;;;;
2023/11/26 20:20:35;;;;;;;18.9;11.8;;;;;;;;;;;;;
2023/11/26 20:23:00;;;;;;;17.5;10.8;;;;;;;;;;;;;
2023/11/26 20:25:25;;;;;;;14.8;9.8;;;;;;;;;;;;;
2023/11/26 20:27:51;;;;;;;18.7;10.5;;;;;;;;;;;;;
2023/11/26 20:30:20;;;;;;;19.8;12.8;;;;;;;;;;;;;